sensor_id;sensor_type;location;lat;lon;timestamp;temperature;humidity
60293;DHT22;52402;52.670;6.750;2023-06-26T00:00:27;21.10;99.90
60293;DHT22;52402;52.670;6.750;2023-06-26T00:02:52;21.10;99.90
60293;DHT22;52402;52.670;6.750;2023-06-26T00:05:18;21.00;99.90
60293;DHT22;52402;52.670;6.750;2023-06-26T00:07:44;21.00;99.90
60293;DHT22;52402;52.670;6.750;2023-06-26T00:10:10;21.00;99.90
60293;DHT22;52402;52.670;6.750;2023-06-26T00:12:35;21.00;99.90
60293;DHT22;52402;52.670;6.750;2023-06-26T00:15:01;21.00;99.90
60293;DHT22;52402;52.670;6.750;2023-06-26T00:17:27;21.00;99.90
60293;DHT22;52402;52.670;6.750;2023-06-26T00:19:53;21.00;99.90
60293;DHT22;52402;52.670;6.750;2023-06-26T00:22:21;20.90;99.90
60293;DHT22;52402;52.670;6.750;2023-06-26T00:24:46;20.90;99.90
60293;DHT22;52402;52.670;6.750;2023-06-26T00:27:12;20.90;99.90
60293;DHT22;52402;52.670;6.750;2023-06-26T00:29:37;20.80;99.90
60293;DHT22;52402;52.670;6.750;2023-06-26T00:32:04;20.80;99.90
60293;DHT22;52402;52.670;6.750;2023-06-26T00:34:30;20.80;99.90
60293;DHT22;52402;52.670;6.750;2023-06-26T00:36:55;20.70;99.90
60293;DHT22;52402;52.670;6.750;2023-06-26T00:39:21;20.70;99.90
60293;DHT22;52402;52.670;6.750;2023-06-26T00:41:47;20.70;99.90
60293;DHT22;52402;52.670;6.750;2023-06-26T00:44:13;20.70;99.90
60293;DHT22;52402;52.670;6.750;2023-06-26T00:46:38;20.60;99.90
60293;DHT22;52402;52.670;6.750;2023-06-26T00:49:04;20.60;99.90
60293;DHT22;52402;52.670;6.750;2023-06-26T00:51:31;20.60;99.90
60293;DHT22;52402;52.670;6.750;2023-06-26T00:53:57;20.60;99.90
60293;DHT22;52402;52.670;6.750;2023-06-26T00:56:23;20.50;99.90
60293;DHT22;52402;52.670;6.750;2023-06-26T00:58:49;20.50;99.90
60293;DHT22;52402;52.670;6.750;2023-06-26T01:01:15;20.50;99.90
60293;DHT22;52402;52.670;6.750;2023-06-26T01:03:44;20.40;99.90
60293;DHT22;52402;52.670;6.750;2023-06-26T01:06:11;20.40;99.90
60293;DHT22;52402;52.670;6.750;2023-06-26T01:08:39;20.40;99.90
60293;DHT22;52402;52.670;6.750;2023-06-26T01:11:07;20.40;99.90
60293;DHT22;52402;52.670;6.750;2023-06-26T01:13:33;20.40;99.90
60293;DHT22;52402;52.670;6.750;2023-06-26T01:16:00;20.40;99.90
60293;DHT22;52402;52.670;6.750;2023-06-26T01:18:27;20.30;99.90
60293;DHT22;52402;52.670;6.750;2023-06-26T01:20:54;20.30;99.90
60293;DHT22;52402;52.670;6.750;2023-06-26T01:23:37;20.30;99.90
60293;DHT22;52402;52.670;6.750;2023-06-26T01:26:27;20.30;99.90
60293;DHT22;52402;52.670;6.750;2023-06-26T01:28:56;20.20;99.90
60293;DHT22;52402;52.670;6.750;2023-06-26T01:31:24;20.20;99.90
60293;DHT22;52402;52.670;6.750;2023-06-26T01:33:50;20.20;99.90
60293;DHT22;52402;52.670;6.750;2023-06-26T01:36:16;20.10;99.90
60293;DHT22;52402;52.670;6.750;2023-06-26T01:38:42;20.10;99.90
60293;DHT22;52402;52.670;6.750;2023-06-26T01:41:08;20.10;99.90
60293;DHT22;52402;52.670;6.750;2023-06-26T01:43:57;20.10;99.90
60293;DHT22;52402;52.670;6.750;2023-06-26T01:54:37;20.10;99.90
60293;DHT22;52402;52.670;6.750;2023-06-26T01:57:05;20.00;99.90
60293;DHT22;52402;52.670;6.750;2023-06-26T01:59:33;20.00;99.90
60293;DHT22;52402;52.670;6.750;2023-06-26T02:02:01;19.90;99.90
60293;DHT22;52402;52.670;6.750;2023-06-26T02:04:26;19.90;99.90
60293;DHT22;52402;52.670;6.750;2023-06-26T02:06:52;19.90;99.90
60293;DHT22;52402;52.670;6.750;2023-06-26T02:09:18;19.80;99.90
60293;DHT22;52402;52.670;6.750;2023-06-26T02:11:44;19.90;99.90
60293;DHT22;52402;52.670;6.750;2023-06-26T02:14:10;19.80;99.90
60293;DHT22;52402;52.670;6.750;2023-06-26T02:16:36;19.80;99.90
60293;DHT22;52402;52.670;6.750;2023-06-26T02:19:02;19.80;99.90
60293;DHT22;52402;52.670;6.750;2023-06-26T02:21:27;19.80;99.90
60293;DHT22;52402;52.670;6.750;2023-06-26T02:23:53;19.80;99.90
60293;DHT22;52402;52.670;6.750;2023-06-26T02:26:18;19.90;99.90
60293;DHT22;52402;52.670;6.750;2023-06-26T02:28:44;19.80;99.90
60293;DHT22;52402;52.670;6.750;2023-06-26T02:31:09;19.80;99.90
60293;DHT22;52402;52.670;6.750;2023-06-26T02:33:35;19.80;99.90
60293;DHT22;52402;52.670;6.750;2023-06-26T02:36:01;19.80;99.90
60293;DHT22;52402;52.670;6.750;2023-06-26T02:38:26;19.80;99.90
60293;DHT22;52402;52.670;6.750;2023-06-26T02:40:52;19.90;99.90
60293;DHT22;52402;52.670;6.750;2023-06-26T02:43:17;19.90;99.90
60293;DHT22;52402;52.670;6.750;2023-06-26T02:45:43;19.90;99.90
60293;DHT22;52402;52.670;6.750;2023-06-26T02:48:09;19.90;99.90
60293;DHT22;52402;52.670;6.750;2023-06-26T02:50:34;19.90;99.90
60293;DHT22;52402;52.670;6.750;2023-06-26T02:53:00;20.00;99.90
60293;DHT22;52402;52.670;6.750;2023-06-26T02:55:26;20.10;99.90
60293;DHT22;52402;52.670;6.750;2023-06-26T02:57:52;20.10;99.90
60293;DHT22;52402;52.670;6.750;2023-06-26T03:00:18;20.10;99.90
60293;DHT22;52402;52.670;6.750;2023-06-26T03:02:43;20.20;99.90
60293;DHT22;52402;52.670;6.750;2023-06-26T03:05:09;20.20;99.90
60293;DHT22;52402;52.670;6.750;2023-06-26T03:07:35;20.30;99.90
60293;DHT22;52402;52.670;6.750;2023-06-26T03:10:00;20.30;99.90
60293;DHT22;52402;52.670;6.750;2023-06-26T03:12:26;20.40;99.90
60293;DHT22;52402;52.670;6.750;2023-06-26T03:14:51;20.40;99.90
60293;DHT22;52402;52.670;6.750;2023-06-26T03:17:17;20.40;99.90
60293;DHT22;52402;52.670;6.750;2023-06-26T03:19:43;20.50;99.90
60293;DHT22;52402;52.670;6.750;2023-06-26T03:22:08;20.50;99.90
60293;DHT22;52402;52.670;6.750;2023-06-26T03:24:34;20.50;99.90
60293;DHT22;52402;52.670;6.750;2023-06-26T03:26:59;20.50;99.90
60293;DHT22;52402;52.670;6.750;2023-06-26T03:29:25;20.50;99.90
60293;DHT22;52402;52.670;6.750;2023-06-26T03:31:51;20.50;99.90
60293;DHT22;52402;52.670;6.750;2023-06-26T03:34:16;20.60;99.90
60293;DHT22;52402;52.670;6.750;2023-06-26T03:36:42;20.70;99.90
60293;DHT22;52402;52.670;6.750;2023-06-26T03:39:07;20.60;99.90
60293;DHT22;52402;52.670;6.750;2023-06-26T03:41:33;20.60;99.90
60293;DHT22;52402;52.670;6.750;2023-06-26T03:44:02;20.60;99.90
60293;DHT22;52402;52.670;6.750;2023-06-26T03:46:29;20.60;99.90
60293;DHT22;52402;52.670;6.750;2023-06-26T03:48:54;20.50;99.90
60293;DHT22;52402;52.670;6.750;2023-06-26T03:51:20;20.50;99.90
60293;DHT22;52402;52.670;6.750;2023-06-26T03:53:46;20.60;99.90
60293;DHT22;52402;52.670;6.750;2023-06-26T03:56:11;20.50;99.90
60293;DHT22;52402;52.670;6.750;2023-06-26T03:58:37;20.50;99.90
60293;DHT22;52402;52.670;6.750;2023-06-26T04:01:03;20.50;99.90
60293;DHT22;52402;52.670;6.750;2023-06-26T04:03:29;20.60;99.90
60293;DHT22;52402;52.670;6.750;2023-06-26T04:05:54;20.50;99.90
60293;DHT22;52402;52.670;6.750;2023-06-26T04:08:20;20.50;99.90
60293;DHT22;52402;52.670;6.750;2023-06-26T04:10:46;20.50;99.90
60293;DHT22;52402;52.670;6.750;2023-06-26T04:13:14;20.50;99.90
60293;DHT22;52402;52.670;6.750;2023-06-26T04:15:39;20.60;99.90
60293;DHT22;52402;52.670;6.750;2023-06-26T04:18:05;20.50;99.90
60293;DHT22;52402;52.670;6.750;2023-06-26T04:20:30;20.60;99.90
60293;DHT22;52402;52.670;6.750;2023-06-26T04:22:56;20.60;99.90
60293;DHT22;52402;52.670;6.750;2023-06-26T04:25:22;20.60;99.90
60293;DHT22;52402;52.670;6.750;2023-06-26T04:27:47;20.60;99.90
60293;DHT22;52402;52.670;6.750;2023-06-26T04:30:13;20.60;99.90
60293;DHT22;52402;52.670;6.750;2023-06-26T04:32:39;20.60;99.90
60293;DHT22;52402;52.670;6.750;2023-06-26T04:35:04;20.60;99.90
60293;DHT22;52402;52.670;6.750;2023-06-26T04:37:30;20.60;99.90
60293;DHT22;52402;52.670;6.750;2023-06-26T04:39:56;20.70;99.90
60293;DHT22;52402;52.670;6.750;2023-06-26T04:42:21;20.70;99.90
60293;DHT22;52402;52.670;6.750;2023-06-26T04:44:47;20.70;99.90
60293;DHT22;52402;52.670;6.750;2023-06-26T04:47:13;20.80;99.90
60293;DHT22;52402;52.670;6.750;2023-06-26T04:49:40;20.80;99.90
60293;DHT22;52402;52.670;6.750;2023-06-26T04:52:11;20.80;99.90
60293;DHT22;52402;52.670;6.750;2023-06-26T04:54:39;20.90;99.90
60293;DHT22;52402;52.670;6.750;2023-06-26T04:57:05;21.00;99.90
60293;DHT22;52402;52.670;6.750;2023-06-26T04:59:31;21.10;99.90
60293;DHT22;52402;52.670;6.750;2023-06-26T05:01:56;21.30;99.90
60293;DHT22;52402;52.670;6.750;2023-06-26T05:04:22;21.40;99.90
60293;DHT22;52402;52.670;6.750;2023-06-26T05:06:48;21.50;99.90
60293;DHT22;52402;52.670;6.750;2023-06-26T05:09:14;21.50;99.90
60293;DHT22;52402;52.670;6.750;2023-06-26T05:11:39;21.60;99.90
60293;DHT22;52402;52.670;6.750;2023-06-26T05:14:06;21.60;99.90
60293;DHT22;52402;52.670;6.750;2023-06-26T05:16:34;21.60;99.90
60293;DHT22;52402;52.670;6.750;2023-06-26T05:19:00;21.60;99.90
60293;DHT22;52402;52.670;6.750;2023-06-26T05:21:27;21.60;99.90
60293;DHT22;52402;52.670;6.750;2023-06-26T05:23:56;21.60;99.90
60293;DHT22;52402;52.670;6.750;2023-06-26T05:26:22;21.50;99.90
60293;DHT22;52402;52.670;6.750;2023-06-26T05:28:48;21.50;99.90
60293;DHT22;52402;52.670;6.750;2023-06-26T05:31:15;21.40;99.90
60293;DHT22;52402;52.670;6.750;2023-06-26T05:33:45;21.30;99.90
60293;DHT22;52402;52.670;6.750;2023-06-26T05:36:16;21.10;99.90
60293;DHT22;52402;52.670;6.750;2023-06-26T05:38:42;21.10;99.90
60293;DHT22;52402;52.670;6.750;2023-06-26T05:41:10;21.20;99.90
60293;DHT22;52402;52.670;6.750;2023-06-26T05:43:36;21.40;99.90
60293;DHT22;52402;52.670;6.750;2023-06-26T05:46:05;21.40;99.90
60293;DHT22;52402;52.670;6.750;2023-06-26T05:48:30;21.40;99.90
60293;DHT22;52402;52.670;6.750;2023-06-26T05:50:56;21.40;99.90
60293;DHT22;52402;52.670;6.750;2023-06-26T05:53:22;21.40;99.90
60293;DHT22;52402;52.670;6.750;2023-06-26T05:55:48;21.40;99.90
60293;DHT22;52402;52.670;6.750;2023-06-26T05:58:14;21.30;99.90
60293;DHT22;52402;52.670;6.750;2023-06-26T06:00:40;21.20;99.90
60293;DHT22;52402;52.670;6.750;2023-06-26T06:03:06;21.20;99.90
60293;DHT22;52402;52.670;6.750;2023-06-26T06:05:35;21.10;99.90
60293;DHT22;52402;52.670;6.750;2023-06-26T06:08:00;21.10;99.90
60293;DHT22;52402;52.670;6.750;2023-06-26T06:10:26;21.10;99.90
60293;DHT22;52402;52.670;6.750;2023-06-26T06:12:52;21.20;99.90
60293;DHT22;52402;52.670;6.750;2023-06-26T06:15:17;21.30;99.90
60293;DHT22;52402;52.670;6.750;2023-06-26T06:17:43;21.30;99.90
60293;DHT22;52402;52.670;6.750;2023-06-26T06:20:09;21.40;99.90
60293;DHT22;52402;52.670;6.750;2023-06-26T06:22:34;21.30;99.90
60293;DHT22;52402;52.670;6.750;2023-06-26T06:25:00;21.30;99.90
60293;DHT22;52402;52.670;6.750;2023-06-26T06:27:26;21.40;99.90
60293;DHT22;52402;52.670;6.750;2023-06-26T06:29:52;21.50;99.90
60293;DHT22;52402;52.670;6.750;2023-06-26T06:32:18;21.70;99.90
60293;DHT22;52402;52.670;6.750;2023-06-26T06:34:45;21.60;99.90
60293;DHT22;52402;52.670;6.750;2023-06-26T06:37:11;21.50;99.90
60293;DHT22;52402;52.670;6.750;2023-06-26T06:39:37;21.50;99.90
60293;DHT22;52402;52.670;6.750;2023-06-26T06:42:03;21.40;99.90
60293;DHT22;52402;52.670;6.750;2023-06-26T06:44:28;21.50;99.90
60293;DHT22;52402;52.670;6.750;2023-06-26T06:47:03;21.60;99.90
60293;DHT22;52402;52.670;6.750;2023-06-26T06:49:29;21.70;99.90
60293;DHT22;52402;52.670;6.750;2023-06-26T06:51:56;21.80;99.90
60293;DHT22;52402;52.670;6.750;2023-06-26T06:54:26;22.00;99.90
60293;DHT22;52402;52.670;6.750;2023-06-26T06:56:52;22.00;99.90
60293;DHT22;52402;52.670;6.750;2023-06-26T06:59:18;22.10;99.90
60293;DHT22;52402;52.670;6.750;2023-06-26T07:01:44;22.10;99.90
60293;DHT22;52402;52.670;6.750;2023-06-26T07:04:11;22.10;99.90
60293;DHT22;52402;52.670;6.750;2023-06-26T07:06:37;22.30;99.90
60293;DHT22;52402;52.670;6.750;2023-06-26T07:09:05;22.30;99.90
60293;DHT22;52402;52.670;6.750;2023-06-26T07:11:32;22.20;99.90
60293;DHT22;52402;52.670;6.750;2023-06-26T07:14:00;22.30;99.90
60293;DHT22;52402;52.670;6.750;2023-06-26T07:16:25;22.40;99.90
60293;DHT22;52402;52.670;6.750;2023-06-26T07:18:51;22.60;99.90
60293;DHT22;52402;52.670;6.750;2023-06-26T07:21:17;22.80;99.90
60293;DHT22;52402;52.670;6.750;2023-06-26T07:23:43;22.80;99.90
60293;DHT22;52402;52.670;6.750;2023-06-26T07:26:08;22.80;99.90
60293;DHT22;52402;52.670;6.750;2023-06-26T07:28:34;22.60;99.90
60293;DHT22;52402;52.670;6.750;2023-06-26T07:31:00;22.70;99.90
60293;DHT22;52402;52.670;6.750;2023-06-26T07:33:25;22.70;99.90
60293;DHT22;52402;52.670;6.750;2023-06-26T07:35:53;22.80;99.90
60293;DHT22;52402;52.670;6.750;2023-06-26T07:38:21;22.80;99.90
60293;DHT22;52402;52.670;6.750;2023-06-26T07:40:50;22.80;99.90
60293;DHT22;52402;52.670;6.750;2023-06-26T07:43:18;23.00;99.90
60293;DHT22;52402;52.670;6.750;2023-06-26T07:45:43;23.20;99.90
60293;DHT22;52402;52.670;6.750;2023-06-26T07:48:16;23.00;99.90
60293;DHT22;52402;52.670;6.750;2023-06-26T07:50:42;22.90;99.90
60293;DHT22;52402;52.670;6.750;2023-06-26T07:53:08;22.90;99.90
60293;DHT22;52402;52.670;6.750;2023-06-26T07:55:37;23.10;99.90
60293;DHT22;52402;52.670;6.750;2023-06-26T07:58:02;23.30;99.90
60293;DHT22;52402;52.670;6.750;2023-06-26T08:00:28;22.90;99.90
60293;DHT22;52402;52.670;6.750;2023-06-26T08:02:56;23.10;99.90
60293;DHT22;52402;52.670;6.750;2023-06-26T08:05:22;23.20;99.90
60293;DHT22;52402;52.670;6.750;2023-06-26T08:07:48;23.20;99.90
60293;DHT22;52402;52.670;6.750;2023-06-26T08:10:13;23.00;99.90
60293;DHT22;52402;52.670;6.750;2023-06-26T08:12:39;23.10;99.90
60293;DHT22;52402;52.670;6.750;2023-06-26T08:15:06;23.40;99.90
60293;DHT22;52402;52.670;6.750;2023-06-26T08:17:32;23.50;99.90
60293;DHT22;52402;52.670;6.750;2023-06-26T08:19:57;23.60;99.90
60293;DHT22;52402;52.670;6.750;2023-06-26T08:22:31;23.60;99.90
60293;DHT22;52402;52.670;6.750;2023-06-26T08:25:00;23.60;99.90
60293;DHT22;52402;52.670;6.750;2023-06-26T08:27:25;23.80;99.90
60293;DHT22;52402;52.670;6.750;2023-06-26T08:29:51;23.90;99.90
60293;DHT22;52402;52.670;6.750;2023-06-26T08:32:17;23.80;99.90
60293;DHT22;52402;52.670;6.750;2023-06-26T08:34:42;23.50;99.90
60293;DHT22;52402;52.670;6.750;2023-06-26T08:37:08;23.50;99.90
60293;DHT22;52402;52.670;6.750;2023-06-26T08:39:36;23.40;99.90
60293;DHT22;52402;52.670;6.750;2023-06-26T08:42:02;23.20;99.90
60293;DHT22;52402;52.670;6.750;2023-06-26T08:44:30;23.10;99.90
60293;DHT22;52402;52.670;6.750;2023-06-26T08:46:58;23.30;99.90
60293;DHT22;52402;52.670;6.750;2023-06-26T08:49:47;23.60;99.90
60293;DHT22;52402;52.670;6.750;2023-06-26T08:52:28;23.60;99.90
60293;DHT22;52402;52.670;6.750;2023-06-26T08:54:58;23.60;99.90
60293;DHT22;52402;52.670;6.750;2023-06-26T08:57:26;23.60;99.90
60293;DHT22;52402;52.670;6.750;2023-06-26T08:59:52;23.30;99.90
60293;DHT22;52402;52.670;6.750;2023-06-26T09:02:18;23.50;99.90
60293;DHT22;52402;52.670;6.750;2023-06-26T09:04:47;23.70;99.90
60293;DHT22;52402;52.670;6.750;2023-06-26T09:07:14;23.90;99.90
60293;DHT22;52402;52.670;6.750;2023-06-26T09:09:40;23.90;99.90
60293;DHT22;52402;52.670;6.750;2023-06-26T09:12:06;24.10;99.90
60293;DHT22;52402;52.670;6.750;2023-06-26T09:14:32;23.70;99.90
60293;DHT22;52402;52.670;6.750;2023-06-26T09:16:57;23.70;99.90
60293;DHT22;52402;52.670;6.750;2023-06-26T09:19:23;23.80;99.90
60293;DHT22;52402;52.670;6.750;2023-06-26T09:21:50;24.10;99.90
60293;DHT22;52402;52.670;6.750;2023-06-26T09:24:17;24.40;99.90
60293;DHT22;52402;52.670;6.750;2023-06-26T09:26:43;24.70;99.70
60293;DHT22;52402;52.670;6.750;2023-06-26T09:29:09;24.60;99.90
60293;DHT22;52402;52.670;6.750;2023-06-26T09:31:39;24.10;99.50
60293;DHT22;52402;52.670;6.750;2023-06-26T09:34:04;24.10;99.80
60293;DHT22;52402;52.670;6.750;2023-06-26T09:36:31;24.10;99.90
60293;DHT22;52402;52.670;6.750;2023-06-26T09:39:06;24.50;99.90
60293;DHT22;52402;52.670;6.750;2023-06-26T09:41:36;24.40;99.90
60293;DHT22;52402;52.670;6.750;2023-06-26T09:44:05;24.20;99.70
60293;DHT22;52402;52.670;6.750;2023-06-26T09:46:31;24.10;99.90
60293;DHT22;52402;52.670;6.750;2023-06-26T09:49:08;24.10;99.60
60293;DHT22;52402;52.670;6.750;2023-06-26T09:51:35;24.00;99.50
60293;DHT22;52402;52.670;6.750;2023-06-26T09:54:02;24.10;99.80
60293;DHT22;52402;52.670;6.750;2023-06-26T09:56:28;23.80;99.40
60293;DHT22;52402;52.670;6.750;2023-06-26T09:59:03;24.10;99.70
60293;DHT22;52402;52.670;6.750;2023-06-26T10:01:30;24.10;99.10
60293;DHT22;52402;52.670;6.750;2023-06-26T10:03:56;23.70;99.40
60293;DHT22;52402;52.670;6.750;2023-06-26T10:06:32;23.70;99.10
60293;DHT22;52402;52.670;6.750;2023-06-26T10:09:00;24.10;98.90
60293;DHT22;52402;52.670;6.750;2023-06-26T10:11:30;24.20;99.20
60293;DHT22;52402;52.670;6.750;2023-06-26T10:13:57;24.90;99.30
60293;DHT22;52402;52.670;6.750;2023-06-26T10:16:26;24.70;99.10
60293;DHT22;52402;52.670;6.750;2023-06-26T10:19:00;25.00;97.70
60293;DHT22;52402;52.670;6.750;2023-06-26T10:21:27;25.30;98.30
60293;DHT22;52402;52.670;6.750;2023-06-26T10:23:56;25.40;95.50
60293;DHT22;52402;52.670;6.750;2023-06-26T10:26:25;24.60;95.00
60293;DHT22;52402;52.670;6.750;2023-06-26T10:28:52;25.00;96.30
60293;DHT22;52402;52.670;6.750;2023-06-26T10:31:22;24.70;96.00
60293;DHT22;52402;52.670;6.750;2023-06-26T10:33:49;24.40;96.70
60293;DHT22;52402;52.670;6.750;2023-06-26T10:36:17;24.60;97.00
60293;DHT22;52402;52.670;6.750;2023-06-26T10:38:55;25.00;96.70
60293;DHT22;52402;52.670;6.750;2023-06-26T10:41:24;25.20;96.80
60293;DHT22;52402;52.670;6.750;2023-06-26T10:46:57;25.40;95.30
60293;DHT22;52402;52.670;6.750;2023-06-26T10:49:30;25.00;94.60
60293;DHT22;52402;52.670;6.750;2023-06-26T10:51:56;24.40;93.10
60293;DHT22;52402;52.670;6.750;2023-06-26T10:54:29;24.30;94.70
60293;DHT22;52402;52.670;6.750;2023-06-26T10:56:55;24.60;92.50
60293;DHT22;52402;52.670;6.750;2023-06-26T10:59:25;24.80;91.40
60293;DHT22;52402;52.670;6.750;2023-06-26T11:02:00;25.20;91.50
60293;DHT22;52402;52.670;6.750;2023-06-26T11:04:40;25.10;91.90
60293;DHT22;52402;52.670;6.750;2023-06-26T11:07:24;25.00;92.70
60293;DHT22;52402;52.670;6.750;2023-06-26T11:09:59;24.60;93.20
60293;DHT22;52402;52.670;6.750;2023-06-26T11:12:44;24.50;92.60
60293;DHT22;52402;52.670;6.750;2023-06-26T11:15:18;24.60;92.60
60293;DHT22;52402;52.670;6.750;2023-06-26T11:17:44;24.60;91.90
60293;DHT22;52402;52.670;6.750;2023-06-26T11:20:18;24.60;91.30
60293;DHT22;52402;52.670;6.750;2023-06-26T11:22:44;24.60;90.60
60293;DHT22;52402;52.670;6.750;2023-06-26T11:25:11;24.30;90.90
60293;DHT22;52402;52.670;6.750;2023-06-26T11:27:43;24.20;89.40
60293;DHT22;52402;52.670;6.750;2023-06-26T11:30:11;24.30;90.90
60293;DHT22;52402;52.670;6.750;2023-06-26T11:32:38;24.70;92.00
60293;DHT22;52402;52.670;6.750;2023-06-26T11:35:04;24.80;91.10
60293;DHT22;52402;52.670;6.750;2023-06-26T11:37:33;24.50;91.60
60293;DHT22;52402;52.670;6.750;2023-06-26T11:39:59;24.40;92.00
60293;DHT22;52402;52.670;6.750;2023-06-26T11:42:25;24.00;91.80
60293;DHT22;52402;52.670;6.750;2023-06-26T11:44:51;24.10;91.90
60293;DHT22;52402;52.670;6.750;2023-06-26T11:47:20;24.20;91.50
60293;DHT22;52402;52.670;6.750;2023-06-26T11:49:47;24.40;92.00
60293;DHT22;52402;52.670;6.750;2023-06-26T11:52:14;23.90;90.20
60293;DHT22;52402;52.670;6.750;2023-06-26T11:54:41;23.60;91.70
60293;DHT22;52402;52.670;6.750;2023-06-26T11:57:07;23.80;92.80
60293;DHT22;52402;52.670;6.750;2023-06-26T11:59:41;23.80;92.40
60293;DHT22;52402;52.670;6.750;2023-06-26T12:02:13;24.10;92.10
60293;DHT22;52402;52.670;6.750;2023-06-26T12:04:41;24.10;92.10
60293;DHT22;52402;52.670;6.750;2023-06-26T12:07:08;24.40;92.80
60293;DHT22;52402;52.670;6.750;2023-06-26T12:09:43;25.00;92.30
60293;DHT22;52402;52.670;6.750;2023-06-26T12:12:10;25.10;91.40
60293;DHT22;52402;52.670;6.750;2023-06-26T12:14:36;25.10;92.40
60293;DHT22;52402;52.670;6.750;2023-06-26T12:17:07;25.00;90.20
60293;DHT22;52402;52.670;6.750;2023-06-26T12:19:36;24.90;89.50
60293;DHT22;52402;52.670;6.750;2023-06-26T12:22:08;24.50;90.50
60293;DHT22;52402;52.670;6.750;2023-06-26T12:24:36;25.00;90.80
60293;DHT22;52402;52.670;6.750;2023-06-26T12:27:10;25.40;90.30
60293;DHT22;52402;52.670;6.750;2023-06-26T12:29:39;25.40;89.00
60293;DHT22;52402;52.670;6.750;2023-06-26T12:32:08;25.60;90.00
60293;DHT22;52402;52.670;6.750;2023-06-26T12:34:37;25.90;89.30
60293;DHT22;52402;52.670;6.750;2023-06-26T12:37:05;25.20;88.80
60293;DHT22;52402;52.670;6.750;2023-06-26T12:42:14;24.40;89.50
60293;DHT22;52402;52.670;6.750;2023-06-26T12:44:40;24.30;90.20
60293;DHT22;52402;52.670;6.750;2023-06-26T12:47:06;24.00;90.40
60293;DHT22;52402;52.670;6.750;2023-06-26T12:49:40;23.80;90.90
60293;DHT22;52402;52.670;6.750;2023-06-26T12:52:09;23.60;91.10
60293;DHT22;52402;52.670;6.750;2023-06-26T12:54:36;23.80;90.40
60293;DHT22;52402;52.670;6.750;2023-06-26T12:57:01;23.40;90.90
60293;DHT22;52402;52.670;6.750;2023-06-26T12:59:29;23.30;90.50
60293;DHT22;52402;52.670;6.750;2023-06-26T13:01:56;23.40;90.70
60293;DHT22;52402;52.670;6.750;2023-06-26T13:04:22;23.70;90.70
60293;DHT22;52402;52.670;6.750;2023-06-26T13:06:47;24.00;90.50
60293;DHT22;52402;52.670;6.750;2023-06-26T13:09:13;23.80;88.90
60293;DHT22;52402;52.670;6.750;2023-06-26T13:11:39;23.80;88.00
60293;DHT22;52402;52.670;6.750;2023-06-26T13:14:05;24.40;90.10
60293;DHT22;52402;52.670;6.750;2023-06-26T13:16:31;24.70;87.60
60293;DHT22;52402;52.670;6.750;2023-06-26T13:18:58;24.80;86.20
60293;DHT22;52402;52.670;6.750;2023-06-26T13:21:24;24.50;84.90
60293;DHT22;52402;52.670;6.750;2023-06-26T13:23:50;24.60;88.60
60293;DHT22;52402;52.670;6.750;2023-06-26T13:26:16;24.70;87.90
60293;DHT22;52402;52.670;6.750;2023-06-26T13:28:42;24.40;86.60
60293;DHT22;52402;52.670;6.750;2023-06-26T13:31:08;24.40;87.80
60293;DHT22;52402;52.670;6.750;2023-06-26T13:33:33;24.00;87.50
60293;DHT22;52402;52.670;6.750;2023-06-26T13:35:59;24.20;89.80
60293;DHT22;52402;52.670;6.750;2023-06-26T13:38:25;23.90;88.60
60293;DHT22;52402;52.670;6.750;2023-06-26T13:40:55;24.20;89.80
60293;DHT22;52402;52.670;6.750;2023-06-26T13:43:24;24.30;88.10
60293;DHT22;52402;52.670;6.750;2023-06-26T13:45:50;24.60;88.60
60293;DHT22;52402;52.670;6.750;2023-06-26T13:48:16;24.30;87.70
60293;DHT22;52402;52.670;6.750;2023-06-26T13:50:41;24.50;86.80
60293;DHT22;52402;52.670;6.750;2023-06-26T13:53:07;24.30;89.00
60293;DHT22;52402;52.670;6.750;2023-06-26T13:55:34;24.10;89.10
60293;DHT22;52402;52.670;6.750;2023-06-26T13:58:00;24.20;89.20
60293;DHT22;52402;52.670;6.750;2023-06-26T14:00:32;23.80;90.00
60293;DHT22;52402;52.670;6.750;2023-06-26T14:03:05;23.70;90.00
60293;DHT22;52402;52.670;6.750;2023-06-26T14:05:35;23.60;90.30
60293;DHT22;52402;52.670;6.750;2023-06-26T14:08:03;23.60;90.30
60293;DHT22;52402;52.670;6.750;2023-06-26T14:10:30;23.90;90.70
60293;DHT22;52402;52.670;6.750;2023-06-26T14:12:55;23.70;90.40
60293;DHT22;52402;52.670;6.750;2023-06-26T14:15:21;24.10;91.00
60293;DHT22;52402;52.670;6.750;2023-06-26T14:17:47;24.10;89.70
60293;DHT22;52402;52.670;6.750;2023-06-26T14:20:16;24.00;88.10
60293;DHT22;52402;52.670;6.750;2023-06-26T14:22:43;23.90;89.20
60293;DHT22;52402;52.670;6.750;2023-06-26T14:25:12;23.80;89.00
60293;DHT22;52402;52.670;6.750;2023-06-26T14:27:38;23.60;89.00
60293;DHT22;52402;52.670;6.750;2023-06-26T14:30:05;23.40;90.20
60293;DHT22;52402;52.670;6.750;2023-06-26T14:32:31;23.60;89.50
60293;DHT22;52402;52.670;6.750;2023-06-26T14:34:57;23.60;90.40
60293;DHT22;52402;52.670;6.750;2023-06-26T14:37:24;23.20;90.60
60293;DHT22;52402;52.670;6.750;2023-06-26T14:39:51;23.30;91.10
60293;DHT22;52402;52.670;6.750;2023-06-26T14:42:16;23.20;90.40
60293;DHT22;52402;52.670;6.750;2023-06-26T14:44:42;23.20;89.80
60293;DHT22;52402;52.670;6.750;2023-06-26T14:47:09;23.50;90.80
60293;DHT22;52402;52.670;6.750;2023-06-26T14:49:34;23.30;88.70
60293;DHT22;52402;52.670;6.750;2023-06-26T14:52:00;23.20;90.00
60293;DHT22;52402;52.670;6.750;2023-06-26T14:54:26;23.40;89.90
60293;DHT22;52402;52.670;6.750;2023-06-26T14:56:51;23.20;90.30
60293;DHT22;52402;52.670;6.750;2023-06-26T14:59:17;23.20;90.50
60293;DHT22;52402;52.670;6.750;2023-06-26T15:01:42;23.50;90.80
60293;DHT22;52402;52.670;6.750;2023-06-26T15:04:08;23.80;90.70
60293;DHT22;52402;52.670;6.750;2023-06-26T15:06:35;24.00;90.40
60293;DHT22;52402;52.670;6.750;2023-06-26T15:09:01;23.70;88.20
60293;DHT22;52402;52.670;6.750;2023-06-26T15:11:28;23.60;89.60
60293;DHT22;52402;52.670;6.750;2023-06-26T15:13:55;23.30;90.10
60293;DHT22;52402;52.670;6.750;2023-06-26T15:16:20;23.60;90.50
60293;DHT22;52402;52.670;6.750;2023-06-26T15:18:46;24.10;90.00
60293;DHT22;52402;52.670;6.750;2023-06-26T15:21:12;24.00;90.30
60293;DHT22;52402;52.670;6.750;2023-06-26T15:23:37;23.90;90.10
60293;DHT22;52402;52.670;6.750;2023-06-26T15:26:04;23.60;88.70
60293;DHT22;52402;52.670;6.750;2023-06-26T15:28:30;23.60;90.00
60293;DHT22;52402;52.670;6.750;2023-06-26T15:30:55;23.90;90.00
60293;DHT22;52402;52.670;6.750;2023-06-26T15:33:21;24.30;90.00
60293;DHT22;52402;52.670;6.750;2023-06-26T15:35:47;24.80;87.70
60293;DHT22;52402;52.670;6.750;2023-06-26T15:38:12;25.10;85.80
60293;DHT22;52402;52.670;6.750;2023-06-26T15:40:38;25.10;84.40
60293;DHT22;52402;52.670;6.750;2023-06-26T15:43:05;24.60;86.30